AFR29H ZBAA-LFPO
Flight info
| Callsign | AFR29H |
|---|---|
| Flight time | N/A |
| Altitude | 36100 |
| Route | BOTPU6J BOTPU W47 IDSOT W48 DKO W66 NUKTI B215 FKG/K0904S1160 A368 SARIN/K0902F380 N161 MASAV/K0898F400 N161 GASBI/N0484F400 N161 LEYLA N644 TETRO M10 SARPI UM10 GOKPA UL746 ODERO L746 LUGEB DCT MOPUG DCT SUNIS DCT VATET DCT REDBU DCT TITIG DCT MAH DCT OLASO DCT PELOG/N0481F410 DCT EPL |
| Aircraft | A359/H-SDE2E3GHIJ3J4J5LM1ORWXY/LB1D1 |
Departure
| Time | 2026-05-01 09:26 |
|---|---|
| Airport | Beijing Capital International Airport (ZBAA) |
Arrival
| Time | N/A |
|---|---|
| Airport | Paris-Orly Airport (LFPO) |
| Time | Latitude | Longitude | Altitude | Speed | Heading |
|---|---|---|---|---|---|
| 2026-05-01 08:46 | 40.07536 | 116.60772 | 130 ft | 0 kts | 278° |
| 2026-05-01 09:12 | 40.07536 | 116.60774 | 130 ft | 2 kts | 278° |
| 2026-05-01 09:12 | 40.07532 | 116.60808 | 126 ft | 4 kts | 285° |
| 2026-05-01 09:12 | 40.07523 | 116.60840 | 124 ft | 4 kts | 296° |
| 2026-05-01 09:12 | 40.07510 | 116.60869 | 124 ft | 4 kts | 314° |
| 2026-05-01 09:13 | 40.07492 | 116.60888 | 124 ft | 4 kts | 343° |
| 2026-05-01 09:13 | 40.07482 | 116.60892 | 124 ft | 0 kts | 355° |
| 2026-05-01 09:16 | 40.07490 | 116.60891 | 124 ft | 4 kts | 354° |
| 2026-05-01 09:16 | 40.07546 | 116.60893 | 125 ft | 12 kts | 8° |
| 2026-05-01 09:17 | 40.07699 | 116.61034 | 124 ft | 14 kts | 52° |
| 2026-05-01 09:17 | 40.07770 | 116.61115 | 126 ft | 13 kts | 13° |
| 2026-05-01 09:17 | 40.07952 | 116.61091 | 127 ft | 14 kts | 353° |
| 2026-05-01 09:18 | 40.08047 | 116.61076 | 128 ft | 14 kts | 353° |
| 2026-05-01 09:18 | 40.08248 | 116.61045 | 128 ft | 15 kts | 351° |
| 2026-05-01 09:19 | 40.08277 | 116.60839 | 126 ft | 13 kts | 263° |
| 2026-05-01 09:19 | 40.08267 | 116.60720 | 126 ft | 13 kts | 263° |
| 2026-05-01 09:19 | 40.08255 | 116.60597 | 130 ft | 14 kts | 263° |
| 2026-05-01 09:20 | 40.08231 | 116.60337 | 128 ft | 15 kts | 264° |
| 2026-05-01 09:20 | 40.08206 | 116.60061 | 126 ft | 16 kts | 263° |
| 2026-05-01 09:21 | 40.08308 | 116.59933 | 127 ft | 12 kts | 353° |
| 2026-05-01 09:21 | 40.08391 | 116.59920 | 128 ft | 12 kts | 353° |
| 2026-05-01 09:21 | 40.08572 | 116.59891 | 127 ft | 14 kts | 353° |
| 2026-05-01 09:22 | 40.08767 | 116.59862 | 126 ft | 15 kts | 354° |
| 2026-05-01 09:22 | 40.08970 | 116.59821 | 127 ft | 13 kts | 326° |
| 2026-05-01 09:23 | 40.08985 | 116.59713 | 126 ft | 13 kts | 266° |
| 2026-05-01 09:23 | 40.08978 | 116.59642 | 130 ft | 0 kts | 262° |
| 2026-05-01 09:24 | 40.08975 | 116.59614 | 130 ft | 7 kts | 262° |
| 2026-05-01 09:24 | 40.08947 | 116.59542 | 130 ft | 10 kts | 220° |
| 2026-05-01 09:24 | 40.08710 | 116.59521 | 127 ft | 40 kts | 173° |
| 2026-05-01 09:25 | 40.07705 | 116.59678 | 127 ft | 131 kts | 173° |
| 2026-05-01 09:25 | 40.05395 | 116.60024 | 643 ft | 175 kts | 173° |
| 2026-05-01 09:26 | 40.04226 | 116.60167 | 1504 ft | 163 kts | 173° |
| 2026-05-01 09:26 | 40.01964 | 116.60392 | 2388 ft | 172 kts | 173° |
| 2026-05-01 09:26 | 40.00714 | 116.60594 | 2607 ft | 188 kts | 171° |
| 2026-05-01 09:27 | 39.97934 | 116.61166 | 3022 ft | 220 kts | 171° |
| 2026-05-01 09:27 | 39.96364 | 116.61449 | 3265 ft | 236 kts | 171° |
| 2026-05-01 09:27 | 39.94673 | 116.61735 | 3596 ft | 247 kts | 173° |
| 2026-05-01 09:28 | 39.92971 | 116.61997 | 4055 ft | 253 kts | 173° |
| 2026-05-01 09:28 | 39.91187 | 116.62281 | 4523 ft | 260 kts | 173° |
| 2026-05-01 09:28 | 39.89377 | 116.62565 | 5052 ft | 263 kts | 174° |
| 2026-05-01 09:28 | 39.87557 | 116.62840 | 5663 ft | 263 kts | 175° |
| 2026-05-01 09:29 | 39.83878 | 116.63410 | 6730 ft | 269 kts | 175° |
| 2026-05-01 09:29 | 39.82008 | 116.63708 | 7274 ft | 272 kts | 175° |
| 2026-05-01 09:30 | 39.78276 | 116.64277 | 8284 ft | 277 kts | 176° |
| 2026-05-01 09:30 | 39.76339 | 116.64562 | 8813 ft | 280 kts | 176° |
| 2026-05-01 09:30 | 39.72413 | 116.65151 | 9835 ft | 286 kts | 176° |
| 2026-05-01 09:31 | 39.70428 | 116.65430 | 10161 ft | 295 kts | 178° |
| 2026-05-01 09:31 | 39.68356 | 116.65257 | 10348 ft | 304 kts | 197° |
| 2026-05-01 09:31 | 39.65013 | 116.61883 | 10733 ft | 323 kts | 243° |
| 2026-05-01 09:32 | 39.64407 | 116.59045 | 10912 ft | 335 kts | 267° |
| 2026-05-01 09:32 | 39.64935 | 116.52857 | 11311 ft | 355 kts | 267° |
| 2026-05-01 09:32 | 39.64782 | 116.49623 | 11537 ft | 365 kts | 265° |
| 2026-05-01 09:33 | 39.64579 | 116.46298 | 11864 ft | 370 kts | 265° |
| 2026-05-01 09:33 | 39.64368 | 116.42959 | 12242 ft | 374 kts | 265° |
| 2026-05-01 09:33 | 39.63932 | 116.36209 | 13067 ft | 379 kts | 265° |
| 2026-05-01 09:34 | 39.63711 | 116.32828 | 13467 ft | 382 kts | 265° |
| 2026-05-01 09:34 | 39.63484 | 116.29380 | 13849 ft | 384 kts | 265° |
| 2026-05-01 09:34 | 39.63024 | 116.22417 | 14598 ft | 388 kts | 265° |
| 2026-05-01 09:35 | 39.62791 | 116.18919 | 14996 ft | 390 kts | 265° |
| 2026-05-01 09:35 | 39.62320 | 116.11885 | 15814 ft | 392 kts | 265° |
| 2026-05-01 09:35 | 39.62081 | 116.08363 | 16237 ft | 393 kts | 265° |
| 2026-05-01 09:36 | 39.61841 | 116.04825 | 16653 ft | 394 kts | 265° |
| 2026-05-01 09:36 | 39.61603 | 116.01315 | 17062 ft | 395 kts | 265° |
| 2026-05-01 09:36 | 39.61361 | 115.97771 | 17488 ft | 396 kts | 265° |
| 2026-05-01 09:36 | 39.61116 | 115.94207 | 17873 ft | 397 kts | 265° |
| 2026-05-01 09:37 | 39.60869 | 115.90630 | 18257 ft | 399 kts | 265° |
| 2026-05-01 09:37 | 39.60759 | 115.83422 | 18854 ft | 403 kts | 278° |
| 2026-05-01 09:37 | 39.61571 | 115.79942 | 19149 ft | 407 kts | 292° |
| 2026-05-01 09:38 | 39.64216 | 115.73406 | 19785 ft | 411 kts | 297° |
| 2026-05-01 09:38 | 39.65591 | 115.70136 | 20039 ft | 413 kts | 297° |
| 2026-05-01 09:38 | 39.67080 | 115.66977 | 20322 ft | 416 kts | 305° |
| 2026-05-01 09:39 | 39.71644 | 115.62290 | 20833 ft | 430 kts | 332° |
| 2026-05-01 09:39 | 39.74400 | 115.60744 | 21160 ft | 432 kts | 334° |
| 2026-05-01 09:39 | 39.77185 | 115.59246 | 21436 ft | 434 kts | 334° |
| 2026-05-01 09:40 | 39.79984 | 115.57731 | 21699 ft | 436 kts | 334° |
| 2026-05-01 09:40 | 39.85601 | 115.54655 | 22271 ft | 439 kts | 334° |
| 2026-05-01 09:40 | 39.88415 | 115.53083 | 22543 ft | 441 kts | 332° |
| 2026-05-01 09:41 | 39.91115 | 115.51203 | 22772 ft | 439 kts | 324° |
| 2026-05-01 09:41 | 39.95599 | 115.45895 | 23289 ft | 436 kts | 306° |
| 2026-05-01 09:41 | 39.97246 | 115.42583 | 23542 ft | 435 kts | 296° |
| 2026-05-01 09:42 | 39.98433 | 115.38973 | 23788 ft | 434 kts | 287° |
| 2026-05-01 09:42 | 39.99140 | 115.35147 | 24026 ft | 433 kts | 278° |
| 2026-05-01 09:42 | 39.99733 | 115.27387 | 24571 ft | 432 kts | 274° |
| 2026-05-01 09:43 | 40.00064 | 115.19535 | 25028 ft | 433 kts | 273° |
| 2026-05-01 09:43 | 40.00223 | 115.15613 | 25293 ft | 433 kts | 273° |
| 2026-05-01 09:43 | 40.00393 | 115.11678 | 25510 ft | 434 kts | 273° |
| 2026-05-01 09:44 | 40.00762 | 115.03832 | 26063 ft | 433 kts | 274° |
| 2026-05-01 09:44 | 40.00955 | 114.99914 | 26338 ft | 433 kts | 274° |
| 2026-05-01 09:44 | 40.01149 | 114.95987 | 26600 ft | 434 kts | 274° |
| 2026-05-01 09:45 | 40.01342 | 114.92060 | 26848 ft | 434 kts | 274° |
| 2026-05-01 09:45 | 40.01723 | 114.84185 | 27313 ft | 435 kts | 274° |
| 2026-05-01 09:45 | 40.01911 | 114.80231 | 27542 ft | 436 kts | 274° |
| 2026-05-01 09:46 | 40.02094 | 114.76335 | 27758 ft | 437 kts | 274° |
| 2026-05-01 09:46 | 40.02280 | 114.72372 | 27979 ft | 437 kts | 274° |
| 2026-05-01 09:46 | 40.02464 | 114.68413 | 28183 ft | 438 kts | 274° |
| 2026-05-01 09:46 | 40.02647 | 114.64443 | 28417 ft | 438 kts | 274° |
| 2026-05-01 09:47 | 40.02829 | 114.60472 | 28618 ft | 438 kts | 273° |
| 2026-05-01 09:47 | 40.03009 | 114.56494 | 28822 ft | 439 kts | 273° |
| 2026-05-01 09:47 | 40.03188 | 114.52517 | 29017 ft | 439 kts | 273° |
| 2026-05-01 09:47 | 40.03366 | 114.48529 | 29190 ft | 440 kts | 273° |
| 2026-05-01 09:48 | 40.03543 | 114.44537 | 29362 ft | 441 kts | 273° |
| 2026-05-01 09:48 | 40.03719 | 114.40549 | 29693 ft | 438 kts | 274° |
| 2026-05-01 09:48 | 40.03892 | 114.36636 | 30029 ft | 435 kts | 273° |
| 2026-05-01 09:48 | 40.04063 | 114.32703 | 30318 ft | 433 kts | 273° |
| 2026-05-01 09:49 | 40.04231 | 114.28786 | 30580 ft | 432 kts | 273° |
| 2026-05-01 09:49 | 40.04397 | 114.24883 | 30848 ft | 430 kts | 273° |
| 2026-05-01 09:49 | 40.04562 | 114.20984 | 31121 ft | 429 kts | 273° |
| 2026-05-01 09:49 | 40.04725 | 114.17114 | 31395 ft | 427 kts | 273° |
| 2026-05-01 09:50 | 40.04887 | 114.13240 | 31673 ft | 425 kts | 273° |
| 2026-05-01 09:50 | 40.05108 | 114.09402 | 31936 ft | 424 kts | 275° |
| 2026-05-01 09:50 | 40.05393 | 114.05573 | 32208 ft | 422 kts | 275° |
| 2026-05-01 09:50 | 40.05701 | 114.01770 | 32471 ft | 421 kts | 275° |
| 2026-05-01 09:51 | 40.06008 | 113.97986 | 32731 ft | 419 kts | 275° |
| 2026-05-01 09:51 | 40.06308 | 113.94198 | 33002 ft | 418 kts | 275° |